Submittal Forms
Current Contests
Recent Contests

Club Activity Tracker - Italian Contest Club (from club selection on form)

Recent postings for the selected club or group are listed below. Other than the call used, all calls listed are only those associated with the club or group. Click on a call to see the details of the posting.
Status Key: new=new posting, update=update prior posting, move=change club/group, delete=delete prior posting.

Sort by   for past

TimestampCallContestClassPowerScoreStatus
2021-05-09 13:10:52IN3FHEVolta RTTYSOAB-6LP1,988,182new6411
2021-05-05 20:09:17IZ3ASACWopsTSingle OpLP484new6403
2021-05-05 20:04:31IK3YBXCWopsTSingle OpLP3,410new6403
2021-05-05 19:15:49I5EFOCWopsTSingle OpHP132new6403
2021-05-05 14:05:27IK3YBXCWopsTSingle OpLP2,550new6402
2021-05-05 14:05:03IZ3ASACWopsTSingle OpLP144new6402
2021-05-05 14:00:11I5EFOCWopsTSingle OpHP1,330new6402
2021-05-04 06:06:27IN3FHEARISO CWLP71,753new6393
2021-05-03 16:55:54IR2Q(IK2PFL)ARISO CWHP695,955new6393
2021-05-03 10:51:58IQ8SNARIM/SHP893,826new6393
 (IZ8JAI,IZ8FWN,@IQ8SN)
 
2021-05-02 19:30:55I2IFTARISO CWHP329,868new6393
2021-05-02 12:34:36IK2YCWARISO SSBHP252,790new6393
2021-05-02 10:09:49IK0NOJARISO CWLP5,343new6393
2021-04-28 20:08:25IZ3ASACWopsTSingle OpLP576new6385
2021-04-28 20:06:14IK3YBXCWopsTSingle OpLP3,843new6385
2021-04-28 19:15:24I5EFOCWopsTSingle OpHP210new6385
2021-04-28 15:00:53I5EFOCWopsTSingle OpHP420new6384
2021-04-28 14:02:54IK3YBXCWopsTSingle OpLP6,640new6384
2021-04-26 20:20:31HB9NEHelvetiaMulti-Op MixedHP1,722,175new6373
 (HB9DUR,HB9HLM,HB9CAT,HB9TWY,HB9EOU,HB9TRY,@HB9NE)
2021-04-25 18:42:23I2IFTHelvetiaSO CWHP132,066new6373
 
2021-04-25 10:36:16IK0NOJHelvetiaSO CWHP4,288new6373
2021-04-22 15:25:06I5EFOCWopsTSingle OpHP130new6365
2021-04-21 20:23:14IZ3ASACWopsTSingle OpLP576new6365
2021-04-21 20:02:30IK3YBXCWopsTSingle OpLP2,622new6365
2021-04-21 14:06:15IZ3ASACWopsTSingle OpLP210new6364
2021-04-21 14:02:57IK3YBXCWopsTSingle OpLP2,208new6364
2021-04-21 14:02:44I5EFOCWopsTSingle OpHP440new6364
2021-04-19 14:17:52IN3FHECQMM DXYLLP40,424update6356
2021-04-19 09:17:53IZ4ZZBCQMM DXSOABHP1,821,960new6356
2021-04-19 07:25:20IK3YBXCQMM DXSOABLP201,323new6356
 
2021-04-18 20:02:08IK0NOJYU DXSO CWLP4,611new6355
2021-04-18 19:57:53IK0NOJCQMM DXSOSB/40LP12,775new6356
2021-04-14 20:06:35IZ3ASACWopsTSingle OpLP462new6346
2021-04-14 20:03:37IK3YBXCWopsTSingle OpLP2,968new6346
2021-04-14 19:24:44I5EFOCWopsTSingle OpHP210new6346
2021-04-14 15:58:59IZ3ASACWopsTSingle OpLP121new6345
2021-04-14 14:25:28I5EFOCWopsTSingle OpHP700new6345
2021-04-14 14:04:13IK3YBXCWopsTSingle OpLP1,722new6345
2021-04-11 14:10:19IK2YCWOK/OM DX SSBSOSB/80HP205,590new6332
2021-04-11 13:39:58IK0NOJGagarin DXSOSB/20LP3,084new